sensor_id;sensor_type;location;lat;lon;timestamp;P1;durP1;ratioP1;P2;durP2;ratioP2
74158;SDS011;62511;47.970;11.774;2022-12-29T00:02:08;2.67;;;1.40;;
74158;SDS011;62511;47.970;11.774;2022-12-29T00:04:34;1.48;;;0.90;;
74158;SDS011;62511;47.970;11.774;2022-12-29T00:07:00;4.95;;;1.60;;
74158;SDS011;62511;47.970;11.774;2022-12-29T00:09:28;3.05;;;1.20;;
74158;SDS011;62511;47.970;11.774;2022-12-29T00:11:54;3.08;;;1.10;;
74158;SDS011;62511;47.970;11.774;2022-12-29T00:14:20;2.13;;;1.15;;
74158;SDS011;62511;47.970;11.774;2022-12-29T00:17:04;2.15;;;0.95;;
74158;SDS011;62511;47.970;11.774;2022-12-29T00:19:31;2.17;;;0.88;;
74158;SDS011;62511;47.970;11.774;2022-12-29T00:22:16;3.63;;;0.95;;
74158;SDS011;62511;47.970;11.774;2022-12-29T00:25:01;2.38;;;1.08;;
74158;SDS011;62511;47.970;11.774;2022-12-29T00:27:30;2.55;;;0.63;;
74158;SDS011;62511;47.970;11.774;2022-12-29T00:30:16;1.98;;;0.95;;
74158;SDS011;62511;47.970;11.774;2022-12-29T00:33:04;1.48;;;0.90;;
74158;SDS011;62511;47.970;11.774;2022-12-29T00:35:53;1.58;;;0.88;;
74158;SDS011;62511;47.970;11.774;2022-12-29T00:38:20;2.40;;;1.13;;
74158;SDS011;62511;47.970;11.774;2022-12-29T00:41:05;3.03;;;1.13;;
74158;SDS011;62511;47.970;11.774;2022-12-29T00:43:51;4.70;;;0.90;;
74158;SDS011;62511;47.970;11.774;2022-12-29T00:46:35;2.47;;;0.80;;
74158;SDS011;62511;47.970;11.774;2022-12-29T00:49:02;2.08;;;1.15;;
74158;SDS011;62511;47.970;11.774;2022-12-29T00:51:47;1.88;;;0.73;;
74158;SDS011;62511;47.970;11.774;2022-12-29T00:54:13;2.78;;;1.10;;
74158;SDS011;62511;47.970;11.774;2022-12-29T00:56:40;1.40;;;0.82;;
74158;SDS011;62511;47.970;11.774;2022-12-29T00:59:06;1.25;;;0.90;;
74158;SDS011;62511;47.970;11.774;2022-12-29T01:01:33;2.15;;;1.00;;
74158;SDS011;62511;47.970;11.774;2022-12-29T01:03:59;2.40;;;0.65;;
74158;SDS011;62511;47.970;11.774;2022-12-29T01:06:25;1.67;;;0.80;;
74158;SDS011;62511;47.970;11.774;2022-12-29T01:08:51;0.88;;;0.45;;
74158;SDS011;62511;47.970;11.774;2022-12-29T01:11:36;0.73;;;0.52;;
74158;SDS011;62511;47.970;11.774;2022-12-29T01:14:02;2.65;;;1.08;;
74158;SDS011;62511;47.970;11.774;2022-12-29T01:16:29;1.10;;;0.63;;
74158;SDS011;62511;47.970;11.774;2022-12-29T01:18:55;2.80;;;0.70;;
74158;SDS011;62511;47.970;11.774;2022-12-29T01:21:23;0.93;;;0.73;;
74158;SDS011;62511;47.970;11.774;2022-12-29T01:23:49;1.85;;;1.08;;
74158;SDS011;62511;47.970;11.774;2022-12-29T01:26:15;2.13;;;0.82;;
74158;SDS011;62511;47.970;11.774;2022-12-29T01:28:41;1.45;;;0.75;;
74158;SDS011;62511;47.970;11.774;2022-12-29T01:31:08;1.50;;;0.63;;
74158;SDS011;62511;47.970;11.774;2022-12-29T01:33:34;3.15;;;0.80;;
74158;SDS011;62511;47.970;11.774;2022-12-29T01:36:01;1.83;;;1.05;;
74158;SDS011;62511;47.970;11.774;2022-12-29T01:38:27;1.63;;;0.93;;
74158;SDS011;62511;47.970;11.774;2022-12-29T01:40:53;1.52;;;0.75;;
74158;SDS011;62511;47.970;11.774;2022-12-29T01:43:19;0.50;;;0.45;;
74158;SDS011;62511;47.970;11.774;2022-12-29T01:45:47;1.60;;;0.70;;
74158;SDS011;62511;47.970;11.774;2022-12-29T01:48:14;1.52;;;0.60;;
74158;SDS011;62511;47.970;11.774;2022-12-29T01:50:46;1.40;;;0.63;;
74158;SDS011;62511;47.970;11.774;2022-12-29T01:53:21;0.93;;;0.40;;
74158;SDS011;62511;47.970;11.774;2022-12-29T01:55:54;0.95;;;0.63;;
74158;SDS011;62511;47.970;11.774;2022-12-29T01:58:22;1.75;;;0.50;;
74158;SDS011;62511;47.970;11.774;2022-12-29T02:00:48;0.50;;;0.50;;
74158;SDS011;62511;47.970;11.774;2022-12-29T02:03:15;0.52;;;0.40;;
74158;SDS011;62511;47.970;11.774;2022-12-29T02:05:45;1.48;;;0.70;;
74158;SDS011;62511;47.970;11.774;2022-12-29T02:08:13;1.95;;;0.50;;
74158;SDS011;62511;47.970;11.774;2022-12-29T02:10:39;1.38;;;0.60;;
74158;SDS011;62511;47.970;11.774;2022-12-29T02:13:06;0.98;;;0.68;;
74158;SDS011;62511;47.970;11.774;2022-12-29T02:15:35;1.35;;;0.65;;
74158;SDS011;62511;47.970;11.774;2022-12-29T02:18:32;1.50;;;0.98;;
74158;SDS011;62511;47.970;11.774;2022-12-29T02:30:57;1.15;;;0.47;;
74158;SDS011;62511;47.970;11.774;2022-12-29T02:39:21;0.30;;;0.30;;
74158;SDS011;62511;47.970;11.774;2022-12-29T02:41:38;0.52;;;0.52;;
74158;SDS011;62511;47.970;11.774;2022-12-29T02:44:21;0.47;;;0.30;;
74158;SDS011;62511;47.970;11.774;2022-12-29T02:47:11;0.80;;;0.50;;
74158;SDS011;62511;47.970;11.774;2022-12-29T02:50:02;2.13;;;0.57;;
74158;SDS011;62511;47.970;11.774;2022-12-29T02:52:54;1.65;;;0.30;;
74158;SDS011;62511;47.970;11.774;2022-12-29T02:55:27;0.47;;;0.30;;
74158;SDS011;62511;47.970;11.774;2022-12-29T03:01:45;1.23;;;0.63;;
74158;SDS011;62511;47.970;11.774;2022-12-29T03:15:28;2.10;;;0.40;;
74158;SDS011;62511;47.970;11.774;2022-12-29T03:18:23;0.63;;;0.40;;
74158;SDS011;62511;47.970;11.774;2022-12-29T03:24:27;0.38;;;0.38;;
74158;SDS011;62511;47.970;11.774;2022-12-29T03:27:35;1.38;;;0.57;;
74158;SDS011;62511;47.970;11.774;2022-12-29T03:30:22;0.95;;;0.40;;
74158;SDS011;62511;47.970;11.774;2022-12-29T03:32:52;2.42;;;0.55;;
74158;SDS011;62511;47.970;11.774;2022-12-29T03:35:25;1.15;;;0.30;;
74158;SDS011;62511;47.970;11.774;2022-12-29T03:37:54;1.27;;;0.50;;
74158;SDS011;62511;47.970;11.774;2022-12-29T03:40:24;0.70;;;0.40;;
74158;SDS011;62511;47.970;11.774;2022-12-29T03:42:54;0.98;;;0.47;;
74158;SDS011;62511;47.970;11.774;2022-12-29T03:45:58;1.17;;;0.52;;
74158;SDS011;62511;47.970;11.774;2022-12-29T03:48:31;0.80;;;0.45;;
74158;SDS011;62511;47.970;11.774;2022-12-29T03:50:58;1.23;;;0.80;;
74158;SDS011;62511;47.970;11.774;2022-12-29T03:53:39;1.35;;;0.50;;
74158;SDS011;62511;47.970;11.774;2022-12-29T03:58:45;0.73;;;0.40;;
74158;SDS011;62511;47.970;11.774;2022-12-29T04:01:21;0.63;;;0.50;;
74158;SDS011;62511;47.970;11.774;2022-12-29T04:04:29;0.68;;;0.43;;
74158;SDS011;62511;47.970;11.774;2022-12-29T04:07:11;0.70;;;0.40;;
74158;SDS011;62511;47.970;11.774;2022-12-29T04:09:38;0.52;;;0.32;;
74158;SDS011;62511;47.970;11.774;2022-12-29T04:12:28;0.40;;;0.40;;
74158;SDS011;62511;47.970;11.774;2022-12-29T04:14:54;0.95;;;0.70;;
74158;SDS011;62511;47.970;11.774;2022-12-29T04:17:32;1.00;;;0.90;;
74158;SDS011;62511;47.970;11.774;2022-12-29T04:20:01;0.75;;;0.47;;
74158;SDS011;62511;47.970;11.774;2022-12-29T04:23:08;3.08;;;0.57;;
74158;SDS011;62511;47.970;11.774;2022-12-29T04:25:38;0.88;;;0.50;;
74158;SDS011;62511;47.970;11.774;2022-12-29T04:28:14;1.30;;;0.40;;
74158;SDS011;62511;47.970;11.774;2022-12-29T04:30:46;2.60;;;0.60;;
74158;SDS011;62511;47.970;11.774;2022-12-29T04:33:20;0.52;;;0.35;;
74158;SDS011;62511;47.970;11.774;2022-12-29T04:35:51;0.82;;;0.60;;
74158;SDS011;62511;47.970;11.774;2022-12-29T04:38:25;1.48;;;0.35;;
74158;SDS011;62511;47.970;11.774;2022-12-29T04:41:21;1.63;;;0.63;;
74158;SDS011;62511;47.970;11.774;2022-12-29T04:43:53;0.55;;;0.50;;
74158;SDS011;62511;47.970;11.774;2022-12-29T04:46:19;0.55;;;0.43;;
74158;SDS011;62511;47.970;11.774;2022-12-29T04:48:45;0.50;;;0.50;;
74158;SDS011;62511;47.970;11.774;2022-12-29T04:51:12;1.10;;;0.57;;
74158;SDS011;62511;47.970;11.774;2022-12-29T04:53:47;1.67;;;0.52;;
74158;SDS011;62511;47.970;11.774;2022-12-29T04:56:16;1.02;;;0.40;;
74158;SDS011;62511;47.970;11.774;2022-12-29T04:59:07;0.82;;;0.40;;
74158;SDS011;62511;47.970;11.774;2022-12-29T05:04:18;0.40;;;0.40;;
74158;SDS011;62511;47.970;11.774;2022-12-29T05:06:54;1.10;;;0.52;;
74158;SDS011;62511;47.970;11.774;2022-12-29T05:09:27;0.77;;;0.55;;
74158;SDS011;62511;47.970;11.774;2022-12-29T05:14:40;0.60;;;0.50;;
74158;SDS011;62511;47.970;11.774;2022-12-29T05:17:40;0.90;;;0.40;;
74158;SDS011;62511;47.970;11.774;2022-12-29T05:20:12;0.50;;;0.50;;
74158;SDS011;62511;47.970;11.774;2022-12-29T05:25:08;0.77;;;0.40;;
74158;SDS011;62511;47.970;11.774;2022-12-29T05:27:44;0.38;;;0.35;;
74158;SDS011;62511;47.970;11.774;2022-12-29T05:33:06;1.00;;;0.47;;
74158;SDS011;62511;47.970;11.774;2022-12-29T05:36:05;0.40;;;0.40;;
74158;SDS011;62511;47.970;11.774;2022-12-29T05:38:48;0.82;;;0.52;;
74158;SDS011;62511;47.970;11.774;2022-12-29T05:41:17;0.80;;;0.57;;
74158;SDS011;62511;47.970;11.774;2022-12-29T05:46:19;0.90;;;0.60;;
74158;SDS011;62511;47.970;11.774;2022-12-29T05:48:49;2.30;;;0.68;;
74158;SDS011;62511;47.970;11.774;2022-12-29T05:51:17;1.38;;;0.60;;
74158;SDS011;62511;47.970;11.774;2022-12-29T05:56:31;1.60;;;0.63;;
74158;SDS011;62511;47.970;11.774;2022-12-29T05:59:22;0.88;;;0.63;;
74158;SDS011;62511;47.970;11.774;2022-12-29T06:01:52;1.08;;;0.70;;
74158;SDS011;62511;47.970;11.774;2022-12-29T06:04:45;1.27;;;0.70;;
74158;SDS011;62511;47.970;11.774;2022-12-29T06:07:16;1.00;;;0.52;;
74158;SDS011;62511;47.970;11.774;2022-12-29T06:09:44;0.70;;;0.43;;
74158;SDS011;62511;47.970;11.774;2022-12-29T06:12:37;1.10;;;0.70;;
74158;SDS011;62511;47.970;11.774;2022-12-29T06:15:08;1.95;;;0.93;;
74158;SDS011;62511;47.970;11.774;2022-12-29T06:17:58;1.85;;;0.70;;
74158;SDS011;62511;47.970;11.774;2022-12-29T06:20:31;1.17;;;0.50;;
74158;SDS011;62511;47.970;11.774;2022-12-29T06:23:00;4.28;;;2.00;;
74158;SDS011;62511;47.970;11.774;2022-12-29T06:25:56;8.07;;;2.42;;
74158;SDS011;62511;47.970;11.774;2022-12-29T06:32:02;2.90;;;1.17;;
74158;SDS011;62511;47.970;11.774;2022-12-29T06:37:27;3.70;;;1.33;;
74158;SDS011;62511;47.970;11.774;2022-12-29T06:40:18;1.50;;;0.80;;
74158;SDS011;62511;47.970;11.774;2022-12-29T06:42:49;2.67;;;1.20;;
74158;SDS011;62511;47.970;11.774;2022-12-29T06:48:15;2.15;;;0.95;;
74158;SDS011;62511;47.970;11.774;2022-12-29T06:50:56;1.63;;;0.77;;
74158;SDS011;62511;47.970;11.774;2022-12-29T06:53:23;2.17;;;1.17;;
74158;SDS011;62511;47.970;11.774;2022-12-29T06:55:52;1.83;;;0.90;;
74158;SDS011;62511;47.970;11.774;2022-12-29T06:58:45;1.98;;;0.73;;
74158;SDS011;62511;47.970;11.774;2022-12-29T07:01:33;1.00;;;0.70;;
74158;SDS011;62511;47.970;11.774;2022-12-29T07:04:10;1.63;;;0.95;;
74158;SDS011;62511;47.970;11.774;2022-12-29T07:06:39;2.38;;;0.93;;
74158;SDS011;62511;47.970;11.774;2022-12-29T07:09:35;1.60;;;1.10;;
74158;SDS011;62511;47.970;11.774;2022-12-29T07:12:34;2.13;;;1.13;;
74158;SDS011;62511;47.970;11.774;2022-12-29T07:15:06;2.42;;;0.90;;
74158;SDS011;62511;47.970;11.774;2022-12-29T07:17:37;1.92;;;0.95;;
74158;SDS011;62511;47.970;11.774;2022-12-29T07:20:35;5.20;;;2.00;;
74158;SDS011;62511;47.970;11.774;2022-12-29T07:23:02;1.98;;;1.30;;
74158;SDS011;62511;47.970;11.774;2022-12-29T07:25:33;5.10;;;1.40;;
74158;SDS011;62511;47.970;11.774;2022-12-29T07:31:12;3.17;;;1.85;;
74158;SDS011;62511;47.970;11.774;2022-12-29T07:33:56;5.85;;;2.03;;
74158;SDS011;62511;47.970;11.774;2022-12-29T07:36:23;6.72;;;2.42;;
74158;SDS011;62511;47.970;11.774;2022-12-29T07:39:13;5.50;;;2.00;;
74158;SDS011;62511;47.970;11.774;2022-12-29T07:41:45;7.78;;;2.65;;
74158;SDS011;62511;47.970;11.774;2022-12-29T07:44:51;4.43;;;1.77;;
74158;SDS011;62511;47.970;11.774;2022-12-29T07:47:20;5.50;;;2.35;;
74158;SDS011;62511;47.970;11.774;2022-12-29T07:49:50;7.45;;;2.88;;
74158;SDS011;62511;47.970;11.774;2022-12-29T07:52:21;10.82;;;3.50;;
74158;SDS011;62511;47.970;11.774;2022-12-29T07:54:48;6.68;;;2.50;;
74158;SDS011;62511;47.970;11.774;2022-12-29T07:57:43;2.35;;;1.55;;
74158;SDS011;62511;47.970;11.774;2022-12-29T08:00:28;2.55;;;1.73;;
74158;SDS011;62511;47.970;11.774;2022-12-29T08:03:11;2.88;;;1.40;;
74158;SDS011;62511;47.970;11.774;2022-12-29T08:05:52;2.78;;;1.48;;
74158;SDS011;62511;47.970;11.774;2022-12-29T08:08:33;4.90;;;1.20;;
74158;SDS011;62511;47.970;11.774;2022-12-29T08:11:01;2.90;;;1.33;;
74158;SDS011;62511;47.970;11.774;2022-12-29T08:13:33;2.47;;;1.10;;
74158;SDS011;62511;47.970;11.774;2022-12-29T08:19:14;2.75;;;1.40;;
74158;SDS011;62511;47.970;11.774;2022-12-29T08:22:04;2.95;;;1.60;;
74158;SDS011;62511;47.970;11.774;2022-12-29T08:30:08;5.30;;;1.77;;
74158;SDS011;62511;47.970;11.774;2022-12-29T08:32:55;3.63;;;2.17;;
74158;SDS011;62511;47.970;11.774;2022-12-29T08:35:24;5.30;;;2.70;;
74158;SDS011;62511;47.970;11.774;2022-12-29T08:37:59;4.45;;;2.13;;
74158;SDS011;62511;47.970;11.774;2022-12-29T08:40:25;2.58;;;1.38;;
74158;SDS011;62511;47.970;11.774;2022-12-29T08:43:14;1.75;;;0.95;;
74158;SDS011;62511;47.970;11.774;2022-12-29T08:45:41;4.57;;;1.10;;
74158;SDS011;62511;47.970;11.774;2022-12-29T08:48:08;3.15;;;1.10;;
74158;SDS011;62511;47.970;11.774;2022-12-29T08:50:46;2.85;;;1.20;;
74158;SDS011;62511;47.970;11.774;2022-12-29T08:53:20;4.40;;;1.35;;
74158;SDS011;62511;47.970;11.774;2022-12-29T08:55:58;4.82;;;1.50;;
74158;SDS011;62511;47.970;11.774;2022-12-29T08:58:28;2.67;;;1.17;;
74158;SDS011;62511;47.970;11.774;2022-12-29T09:01:15;2.60;;;1.00;;
74158;SDS011;62511;47.970;11.774;2022-12-29T09:04:01;1.55;;;0.98;;
74158;SDS011;62511;47.970;11.774;2022-12-29T09:06:37;5.40;;;1.60;;
74158;SDS011;62511;47.970;11.774;2022-12-29T09:09:03;5.28;;;2.22;;
74158;SDS011;62511;47.970;11.774;2022-12-29T09:11:30;5.22;;;1.98;;
74158;SDS011;62511;47.970;11.774;2022-12-29T09:14:08;1.63;;;1.13;;
74158;SDS011;62511;47.970;11.774;2022-12-29T09:16:53;2.17;;;1.25;;
74158;SDS011;62511;47.970;11.774;2022-12-29T09:19:48;2.42;;;1.30;;
74158;SDS011;62511;47.970;11.774;2022-12-29T09:22:36;1.33;;;0.90;;
74158;SDS011;62511;47.970;11.774;2022-12-29T09:25:14;2.83;;;1.23;;
74158;SDS011;62511;47.970;11.774;2022-12-29T09:27:42;1.60;;;0.82;;
74158;SDS011;62511;47.970;11.774;2022-12-29T09:30:43;1.15;;;0.82;;
74158;SDS011;62511;47.970;11.774;2022-12-29T09:33:33;2.28;;;1.13;;
74158;SDS011;62511;47.970;11.774;2022-12-29T09:36:08;2.55;;;1.10;;
74158;SDS011;62511;47.970;11.774;2022-12-29T09:38:38;1.95;;;0.85;;
74158;SDS011;62511;47.970;11.774;2022-12-29T09:41:27;3.25;;;1.00;;
74158;SDS011;62511;47.970;11.774;2022-12-29T09:44:24;3.10;;;1.40;;
74158;SDS011;62511;47.970;11.774;2022-12-29T09:46:58;1.55;;;0.98;;
74158;SDS011;62511;47.970;11.774;2022-12-29T09:52:20;1.77;;;1.08;;
74158;SDS011;62511;47.970;11.774;2022-12-29T09:55:09;1.50;;;0.90;;
74158;SDS011;62511;47.970;11.774;2022-12-29T10:04:37;2.58;;;1.13;;
74158;SDS011;62511;47.970;11.774;2022-12-29T10:07:38;1.65;;;0.90;;
74158;SDS011;62511;47.970;11.774;2022-12-29T10:10:35;1.98;;;0.82;;
74158;SDS011;62511;47.970;11.774;2022-12-29T10:24:09;2.03;;;0.90;;
74158;SDS011;62511;47.970;11.774;2022-12-29T10:26:43;2.47;;;0.90;;
74158;SDS011;62511;47.970;11.774;2022-12-29T10:29:33;0.90;;;0.60;;
74158;SDS011;62511;47.970;11.774;2022-12-29T10:35:24;0.73;;;0.68;;
74158;SDS011;62511;47.970;11.774;2022-12-29T10:41:02;2.45;;;1.80;;
74158;SDS011;62511;47.970;11.774;2022-12-29T10:43:50;1.42;;;0.70;;
74158;SDS011;62511;47.970;11.774;2022-12-29T10:49:20;1.80;;;0.82;;
74158;SDS011;62511;47.970;11.774;2022-12-29T10:51:50;1.23;;;0.90;;
74158;SDS011;62511;47.970;11.774;2022-12-29T10:57:43;0.75;;;0.60;;
74158;SDS011;62511;47.970;11.774;2022-12-29T11:00:16;1.80;;;0.88;;
74158;SDS011;62511;47.970;11.774;2022-12-29T11:06:25;3.17;;;1.00;;
74158;SDS011;62511;47.970;11.774;2022-12-29T11:09:15;1.42;;;0.85;;
74158;SDS011;62511;47.970;11.774;2022-12-29T11:11:47;2.00;;;0.75;;
74158;SDS011;62511;47.970;11.774;2022-12-29T11:14:27;4.40;;;1.20;;
74158;SDS011;62511;47.970;11.774;2022-12-29T11:17:16;1.40;;;0.60;;
74158;SDS011;62511;47.970;11.774;2022-12-29T11:23:26;4.03;;;1.40;;
74158;SDS011;62511;47.970;11.774;2022-12-29T11:28:43;2.25;;;0.90;;
74158;SDS011;62511;47.970;11.774;2022-12-29T11:31:16;1.48;;;0.82;;
74158;SDS011;62511;47.970;11.774;2022-12-29T11:34:32;1.55;;;0.90;;
74158;SDS011;62511;47.970;11.774;2022-12-29T11:40:32;1.35;;;0.73;;
74158;SDS011;62511;47.970;11.774;2022-12-29T11:45:32;1.55;;;0.60;;
74158;SDS011;62511;47.970;11.774;2022-12-29T11:48:25;1.40;;;0.80;;
74158;SDS011;62511;47.970;11.774;2022-12-29T11:50:59;1.45;;;0.60;;
74158;SDS011;62511;47.970;11.774;2022-12-29T11:53:44;0.95;;;0.73;;
74158;SDS011;62511;47.970;11.774;2022-12-29T11:59:40;1.67;;;0.98;;
74158;SDS011;62511;47.970;11.774;2022-12-29T12:06:03;3.33;;;0.70;;
74158;SDS011;62511;47.970;11.774;2022-12-29T12:08:42;1.48;;;1.00;;
74158;SDS011;62511;47.970;11.774;2022-12-29T12:11:22;3.95;;;0.93;;
74158;SDS011;62511;47.970;11.774;2022-12-29T12:14:11;1.50;;;0.50;;
74158;SDS011;62511;47.970;11.774;2022-12-29T12:16:55;2.15;;;0.70;;
74158;SDS011;62511;47.970;11.774;2022-12-29T12:19:57;1.10;;;0.63;;
74158;SDS011;62511;47.970;11.774;2022-12-29T12:22:36;1.05;;;0.70;;
74158;SDS011;62511;47.970;11.774;2022-12-29T12:25:22;0.70;;;0.52;;
74158;SDS011;62511;47.970;11.774;2022-12-29T12:28:10;0.98;;;0.60;;
74158;SDS011;62511;47.970;11.774;2022-12-29T12:30:45;1.83;;;0.80;;
74158;SDS011;62511;47.970;11.774;2022-12-29T12:39:11;0.43;;;0.32;;
74158;SDS011;62511;47.970;11.774;2022-12-29T12:47:49;1.30;;;0.65;;
74158;SDS011;62511;47.970;11.774;2022-12-29T12:50:38;1.05;;;0.60;;
74158;SDS011;62511;47.970;11.774;2022-12-29T13:07:34;0.82;;;0.50;;
74158;SDS011;62511;47.970;11.774;2022-12-29T13:16:23;0.63;;;0.50;;
74158;SDS011;62511;47.970;11.774;2022-12-29T13:19:23;0.75;;;0.43;;
74158;SDS011;62511;47.970;11.774;2022-12-29T13:22:08;0.60;;;0.45;;
74158;SDS011;62511;47.970;11.774;2022-12-29T13:28:06;0.85;;;0.38;;
74158;SDS011;62511;47.970;11.774;2022-12-29T13:31:00;0.82;;;0.50;;
74158;SDS011;62511;47.970;11.774;2022-12-29T13:36:45;0.63;;;0.40;;
74158;SDS011;62511;47.970;11.774;2022-12-29T13:39:19;0.70;;;0.40;;
74158;SDS011;62511;47.970;11.774;2022-12-29T13:41:54;2.00;;;0.40;;
74158;SDS011;62511;47.970;11.774;2022-12-29T13:44:28;0.80;;;0.60;;
74158;SDS011;62511;47.970;11.774;2022-12-29T13:50:18;0.90;;;0.50;;
74158;SDS011;62511;47.970;11.774;2022-12-29T13:59:05;0.80;;;0.40;;
74158;SDS011;62511;47.970;11.774;2022-12-29T14:04:59;1.77;;;0.50;;
74158;SDS011;62511;47.970;11.774;2022-12-29T14:07:46;0.98;;;0.50;;
74158;SDS011;62511;47.970;11.774;2022-12-29T14:10:29;1.08;;;0.60;;
74158;SDS011;62511;47.970;11.774;2022-12-29T14:13:22;1.63;;;0.65;;
74158;SDS011;62511;47.970;11.774;2022-12-29T14:23:43;0.95;;;0.50;;
74158;SDS011;62511;47.970;11.774;2022-12-29T14:32:36;1.95;;;0.60;;
74158;SDS011;62511;47.970;11.774;2022-12-29T14:40:48;1.17;;;0.80;;
74158;SDS011;62511;47.970;11.774;2022-12-29T14:43:36;0.80;;;0.60;;
74158;SDS011;62511;47.970;11.774;2022-12-29T14:49:24;0.65;;;0.40;;
74158;SDS011;62511;47.970;11.774;2022-12-29T14:51:52;3.10;;;0.70;;
74158;SDS011;62511;47.970;11.774;2022-12-29T14:54:43;2.20;;;0.80;;
74158;SDS011;62511;47.970;11.774;2022-12-29T14:57:19;3.17;;;1.25;;
74158;SDS011;62511;47.970;11.774;2022-12-29T15:00:00;2.13;;;1.02;;
74158;SDS011;62511;47.970;11.774;2022-12-29T15:02:32;2.55;;;1.35;;
74158;SDS011;62511;47.970;11.774;2022-12-29T15:04:59;3.38;;;1.58;;
74158;SDS011;62511;47.970;11.774;2022-12-29T15:07:49;5.53;;;2.72;;
74158;SDS011;62511;47.970;11.774;2022-12-29T15:10:17;5.97;;;2.78;;
74158;SDS011;62511;47.970;11.774;2022-12-29T15:13:03;2.83;;;1.70;;
74158;SDS011;62511;47.970;11.774;2022-12-29T15:15:53;2.65;;;1.60;;
74158;SDS011;62511;47.970;11.774;2022-12-29T15:18:43;5.85;;;1.80;;
74158;SDS011;62511;47.970;11.774;2022-12-29T15:21:12;3.45;;;1.65;;
74158;SDS011;62511;47.970;11.774;2022-12-29T15:23:51;3.97;;;1.55;;
74158;SDS011;62511;47.970;11.774;2022-12-29T15:26:53;2.97;;;1.60;;
74158;SDS011;62511;47.970;11.774;2022-12-29T15:29:39;5.57;;;2.25;;
74158;SDS011;62511;47.970;11.774;2022-12-29T15:32:16;9.10;;;3.00;;
74158;SDS011;62511;47.970;11.774;2022-12-29T15:34:55;7.88;;;3.53;;
74158;SDS011;62511;47.970;11.774;2022-12-29T15:37:39;8.15;;;3.90;;
74158;SDS011;62511;47.970;11.774;2022-12-29T15:40:25;7.57;;;3.15;;
74158;SDS011;62511;47.970;11.774;2022-12-29T15:45:38;4.65;;;2.35;;
74158;SDS011;62511;47.970;11.774;2022-12-29T15:48:07;4.25;;;2.25;;
74158;SDS011;62511;47.970;11.774;2022-12-29T15:50:46;4.03;;;1.77;;
74158;SDS011;62511;47.970;11.774;2022-12-29T15:53:22;5.18;;;2.20;;
74158;SDS011;62511;47.970;11.774;2022-12-29T15:56:02;6.80;;;2.13;;
74158;SDS011;62511;47.970;11.774;2022-12-29T15:58:59;5.43;;;2.67;;
74158;SDS011;62511;47.970;11.774;2022-12-29T16:01:37;10.18;;;5.43;;
74158;SDS011;62511;47.970;11.774;2022-12-29T16:06:54;7.63;;;3.80;;
74158;SDS011;62511;47.970;11.774;2022-12-29T16:09:33;9.00;;;3.85;;
74158;SDS011;62511;47.970;11.774;2022-12-29T16:12:06;6.30;;;3.30;;
74158;SDS011;62511;47.970;11.774;2022-12-29T16:14:42;9.80;;;3.60;;
74158;SDS011;62511;47.970;11.774;2022-12-29T16:17:29;7.57;;;2.70;;
74158;SDS011;62511;47.970;11.774;2022-12-29T16:20:54;9.73;;;4.10;;
74158;SDS011;62511;47.970;11.774;2022-12-29T16:23:26;10.48;;;4.05;;
74158;SDS011;62511;47.970;11.774;2022-12-29T16:26:16;11.88;;;4.18;;
74158;SDS011;62511;47.970;11.774;2022-12-29T16:29:05;11.25;;;3.97;;
74158;SDS011;62511;47.970;11.774;2022-12-29T16:31:54;9.75;;;4.35;;
74158;SDS011;62511;47.970;11.774;2022-12-29T16:34:41;11.23;;;4.00;;
74158;SDS011;62511;47.970;11.774;2022-12-29T16:37:27;14.20;;;6.07;;
74158;SDS011;62511;47.970;11.774;2022-12-29T16:40:23;9.35;;;4.45;;
74158;SDS011;62511;47.970;11.774;2022-12-29T16:43:18;13.20;;;6.68;;
74158;SDS011;62511;47.970;11.774;2022-12-29T16:48:27;13.43;;;5.47;;
74158;SDS011;62511;47.970;11.774;2022-12-29T16:51:14;13.43;;;6.25;;
74158;SDS011;62511;47.970;11.774;2022-12-29T16:53:53;5.07;;;2.60;;
74158;SDS011;62511;47.970;11.774;2022-12-29T16:56:26;4.28;;;2.40;;
74158;SDS011;62511;47.970;11.774;2022-12-29T17:02:16;3.17;;;1.95;;
74158;SDS011;62511;47.970;11.774;2022-12-29T17:04:48;3.85;;;2.40;;
74158;SDS011;62511;47.970;11.774;2022-12-29T17:07:57;5.07;;;3.20;;
74158;SDS011;62511;47.970;11.774;2022-12-29T17:10:33;7.20;;;2.90;;
74158;SDS011;62511;47.970;11.774;2022-12-29T17:13:17;7.93;;;3.47;;
74158;SDS011;62511;47.970;11.774;2022-12-29T17:15:54;11.85;;;6.03;;
74158;SDS011;62511;47.970;11.774;2022-12-29T17:18:41;7.38;;;3.92;;
74158;SDS011;62511;47.970;11.774;2022-12-29T17:21:40;18.15;;;5.85;;
74158;SDS011;62511;47.970;11.774;2022-12-29T17:24:17;10.77;;;4.57;;
74158;SDS011;62511;47.970;11.774;2022-12-29T17:26:47;13.05;;;4.28;;
74158;SDS011;62511;47.970;11.774;2022-12-29T17:29:39;7.13;;;2.58;;
74158;SDS011;62511;47.970;11.774;2022-12-29T17:32:16;3.90;;;2.28;;
74158;SDS011;62511;47.970;11.774;2022-12-29T17:34:47;4.90;;;2.63;;
74158;SDS011;62511;47.970;11.774;2022-12-29T17:39:53;3.95;;;2.00;;
74158;SDS011;62511;47.970;11.774;2022-12-29T17:42:28;3.85;;;2.03;;
74158;SDS011;62511;47.970;11.774;2022-12-29T17:45:15;4.45;;;2.22;;
74158;SDS011;62511;47.970;11.774;2022-12-29T17:48:04;7.50;;;2.53;;
74158;SDS011;62511;47.970;11.774;2022-12-29T17:50:48;3.92;;;1.83;;
74158;SDS011;62511;47.970;11.774;2022-12-29T17:53:25;4.35;;;1.90;;
74158;SDS011;62511;47.970;11.774;2022-12-29T17:55:59;3.28;;;1.75;;
74158;SDS011;62511;47.970;11.774;2022-12-29T17:58:28;5.90;;;2.08;;
74158;SDS011;62511;47.970;11.774;2022-12-29T18:01:10;3.70;;;1.90;;
74158;SDS011;62511;47.970;11.774;2022-12-29T18:03:50;3.75;;;1.90;;
74158;SDS011;62511;47.970;11.774;2022-12-29T18:06:42;3.17;;;2.35;;
74158;SDS011;62511;47.970;11.774;2022-12-29T18:09:21;3.33;;;1.70;;
74158;SDS011;62511;47.970;11.774;2022-12-29T18:12:29;3.75;;;2.17;;
74158;SDS011;62511;47.970;11.774;2022-12-29T18:15:32;5.50;;;2.45;;
74158;SDS011;62511;47.970;11.774;2022-12-29T18:18:19;9.68;;;2.78;;
74158;SDS011;62511;47.970;11.774;2022-12-29T18:20:49;10.55;;;3.33;;
74158;SDS011;62511;47.970;11.774;2022-12-29T18:26:29;5.15;;;2.83;;
74158;SDS011;62511;47.970;11.774;2022-12-29T18:29:13;4.55;;;2.50;;
74158;SDS011;62511;47.970;11.774;2022-12-29T18:31:43;4.43;;;2.30;;
74158;SDS011;62511;47.970;11.774;2022-12-29T18:34:14;5.57;;;2.80;;
74158;SDS011;62511;47.970;11.774;2022-12-29T18:36:55;5.90;;;2.70;;
74158;SDS011;62511;47.970;11.774;2022-12-29T18:39:26;6.70;;;2.60;;
74158;SDS011;62511;47.970;11.774;2022-12-29T18:41:53;6.90;;;2.92;;
74158;SDS011;62511;47.970;11.774;2022-12-29T18:44:32;5.85;;;2.40;;
74158;SDS011;62511;47.970;11.774;2022-12-29T18:49:40;8.20;;;3.22;;
74158;SDS011;62511;47.970;11.774;2022-12-29T18:52:30;12.00;;;4.97;;
74158;SDS011;62511;47.970;11.774;2022-12-29T18:54:56;8.45;;;4.05;;
74158;SDS011;62511;47.970;11.774;2022-12-29T18:57:27;8.75;;;4.53;;
74158;SDS011;62511;47.970;11.774;2022-12-29T19:00:08;7.88;;;3.80;;
74158;SDS011;62511;47.970;11.774;2022-12-29T19:02:39;8.63;;;3.72;;
74158;SDS011;62511;47.970;11.774;2022-12-29T19:07:43;6.05;;;2.90;;
74158;SDS011;62511;47.970;11.774;2022-12-29T19:10:24;6.88;;;3.60;;
74158;SDS011;62511;47.970;11.774;2022-12-29T19:13:20;6.53;;;3.08;;
74158;SDS011;62511;47.970;11.774;2022-12-29T19:16:11;7.35;;;3.40;;
74158;SDS011;62511;47.970;11.774;2022-12-29T19:18:43;7.65;;;3.30;;
74158;SDS011;62511;47.970;11.774;2022-12-29T19:24:25;5.20;;;2.75;;
74158;SDS011;62511;47.970;11.774;2022-12-29T19:26:51;4.28;;;2.33;;
74158;SDS011;62511;47.970;11.774;2022-12-29T19:29:22;4.13;;;1.88;;